ENQA

Troll A Platform Heliport

Norway
METAR ENQA 190720Z AUTO 30006KT 9999NDV FEW017/// 16/10 Q1020 W13/S3
Observed Flight Rules
Jul-19 @ 07:20 UTC (16 minutes ago)
Wind Clouds
300° at 6 knots
  • Few at 1,700' AGL
Temperatures Readings
Current 16°C / 61°F
Dewpoint 10°C / 50°F
Humidity 68%
Altimeter 30.12" Hg
Pressure 1020 hPa
Elevation 20
METAR ENQA 190720Z AUTO 30006KT 9999NDV FEW017/// 16/10 Q1020 W13/S3
Observed Flight Rules
Jul-19 @ 07:20 UTC
(16 minutes ago)
Wind
300° at 6 knots
Clouds
  • Few at 1,700' AGL
Temperature Dewpoint
16°C / 61°F 10°C / 50°F
Humidity Altimeter Pressure
68% 30.12" Hg 1020 hPa